Time;durP1;ratioP1;P1;durP2;ratioP2;P2;SDS_P1;SDS_P2;PMS_P1;PMS_P2;Temp;Humidity;BMP_temperature;BMP_pressure;BME280_temperature;BME280_humidity;BME280_pressure;Samples;Min_cycle;Max_cycle;Signal;HPM_P1;HPM_P2
2021/12/20 00:01:53;;;;;;;7.83;4.00;;;;;;;;;;5064541;28;20453;-72
2021/12/20 00:04:21;;;;;;;9.37;2.97;;;;;;;;;;5057536;28;20479;-74
2021/12/20 00:07:04;;;;;;;5.20;3.40;;;;;;;;;;5058004;28;20457;-74
2021/12/20 00:09:38;;;;;;;9.80;3.90;;;;;;;;;;5057279;28;20742;-74
2021/12/20 00:12:12;;;;;;;7.53;2.17;;;;;;;;;;5058408;28;20453;-74
2021/12/20 00:14:46;;;;;;;6.43;3.27;;;;;;;;;;5057268;28;20523;-72
2021/12/20 00:17:19;;;;;;;9.43;4.80;;;;;;;;;;5057506;28;20556;-73
2021/12/20 00:19:55;;;;;;;15.63;3.57;;;;;;;;;;5069059;28;20456;-73
2021/12/20 00:22:43;;;;;;;6.70;4.53;;;;;;;;;;5076996;28;20527;-73
2021/12/20 00:25:14;;;;;;;12.13;7.67;;;;;;;;;;5040526;28;20449;-74
2021/12/20 00:27:47;;;;;;;16.40;5.90;;;;;;;;;;5065737;28;20467;-72
2021/12/20 00:30:22;;;;;;;5.73;3.50;;;;;;;;;;5077438;28;20554;-74
2021/12/20 00:33:05;;;;;;;8.43;3.70;;;;;;;;;;5077328;28;20734;-74
2021/12/20 00:35:41;;;;;;;12.47;3.50;;;;;;;;;;5077449;28;20534;-71
2021/12/20 00:40:55;;;;;;;5.17;3.23;;;;;;;;;;5077420;28;20618;-73
2021/12/20 00:43:23;;;;;;;8.43;5.60;;;;;;;;;;5065792;28;20485;-73
2021/12/20 00:45:53;;;;;;;12.93;4.87;;;;;;;;;;5058759;28;20854;-73
2021/12/20 00:48:22;;;;;;;5.90;4.20;;;;;;;;;;5059180;28;20772;-72
2021/12/20 00:50:50;;;;;;;14.73;6.43;;;;;;;;;;5077682;28;20527;-74
2021/12/20 00:53:18;;;;;;;8.27;3.00;;;;;;;;;;5057817;28;20464;-74
2021/12/20 00:55:47;;;;;;;3.77;2.37;;;;;;;;;;5058650;28;20820;-74
2021/12/20 00:58:20;;;;;;;6.80;2.30;;;;;;;;;;5073864;28;20448;-73
2021/12/20 01:00:58;;;;;;;12.17;5.57;;;;;;;;;;5076860;28;20900;-74
2021/12/20 01:03:33;;;;;;;12.67;5.33;;;;;;;;;;5064083;28;20917;-72
2021/12/20 01:06:11;;;;;;;6.20;3.93;;;;;;;;;;5061218;28;20481;-72
2021/12/20 01:08:41;;;;;;;8.97;5.20;;;;;;;;;;5061226;28;20519;-74
2021/12/20 01:11:19;;;;;;;9.87;7.13;;;;;;;;;;5075478;28;20480;-73
2021/12/20 01:13:53;;;;;;;8.23;6.13;;;;;;;;;;5081928;28;20883;-73
2021/12/20 01:16:29;;;;;;;4.50;2.37;;;;;;;;;;5081416;28;20437;-73
2021/12/20 01:18:57;;;;;;;19.83;3.47;;;;;;;;;;5082454;28;20467;-73
2021/12/20 01:21:25;;;;;;;9.23;3.03;;;;;;;;;;5082345;28;20445;-73
2021/12/20 01:24:07;;;;;;;18.60;3.17;;;;;;;;;;5081480;28;20873;-74
2021/12/20 01:26:36;;;;;;;4.33;3.30;;;;;;;;;;5082508;28;20448;-73
2021/12/20 01:29:05;;;;;;;12.83;3.43;;;;;;;;;;5081361;28;20483;-75
2021/12/20 01:31:33;;;;;;;8.47;1.90;;;;;;;;;;5081148;28;20554;-74
2021/12/20 01:34:01;;;;;;;6.60;2.10;;;;;;;;;;5082115;28;20460;-74
2021/12/20 01:36:29;;;;;;;11.70;3.30;;;;;;;;;;5081350;28;20449;-74
2021/12/20 01:38:57;;;;;;;4.47;1.53;;;;;;;;;;5080134;28;20488;-74
2021/12/20 01:41:24;;;;;;;8.80;6.43;;;;;;;;;;5061814;28;20754;-73
2021/12/20 01:43:53;;;;;;;12.27;4.43;;;;;;;;;;5060716;28;20523;-74
2021/12/20 01:46:23;;;;;;;6.53;4.67;;;;;;;;;;5061367;28;20453;-73
2021/12/20 01:48:51;;;;;;;8.33;7.63;;;;;;;;;;5060752;28;20454;-74
2021/12/20 01:51:33;;;;;;;10.03;6.43;;;;;;;;;;5061785;28;20485;-73
2021/12/20 01:54:02;;;;;;;9.43;4.50;;;;;;;;;;5062139;28;20457;-74
2021/12/20 01:56:31;;;;;;;11.53;6.73;;;;;;;;;;5060186;28;20442;-73
2021/12/20 01:59:02;;;;;;;4.27;3.97;;;;;;;;;;5062217;28;20940;-73
2021/12/20 02:01:33;;;;;;;7.87;5.40;;;;;;;;;;5080620;28;20444;-73
2021/12/20 02:04:04;;;;;;;7.90;7.17;;;;;;;;;;5072279;28;20499;-73
2021/12/20 02:06:34;;;;;;;4.87;1.83;;;;;;;;;;5080203;28;20528;-74
2021/12/20 02:09:04;;;;;;;5.00;1.90;;;;;;;;;;5080434;28;20759;-73
2021/12/20 02:11:32;;;;;;;5.90;2.33;;;;;;;;;;5080530;28;20854;-73
2021/12/20 02:14:00;;;;;;;5.80;2.77;;;;;;;;;;5080251;28;20453;-74
2021/12/20 02:16:52;;;;;;;6.37;5.00;;;;;;;;;;5077763;28;20481;-73
2021/12/20 02:19:21;;;;;;;5.90;4.97;;;;;;;;;;5063297;28;20465;-73
2021/12/20 02:21:50;;;;;;;5.00;2.37;;;;;;;;;;5059711;28;20453;-73
2021/12/20 02:24:18;;;;;;;6.53;3.40;;;;;;;;;;5060127;28;20519;-73
2021/12/20 02:26:51;;;;;;;6.83;2.77;;;;;;;;;;5061188;28;20434;-73
2021/12/20 02:29:26;;;;;;;4.23;2.13;;;;;;;;;;5059797;28;20464;-73
2021/12/20 02:37:29;;;;;;;14.23;4.60;;;;;;;;;;5059268;28;20491;-73
2021/12/20 02:39:57;;;;;;;3.00;1.27;;;;;;;;;;5062884;28;20523;-73
2021/12/20 02:42:30;;;;;;;5.67;1.90;;;;;;;;;;5059180;28;20465;-74
2021/12/20 02:45:14;;;;;;;5.30;2.53;;;;;;;;;;5059170;28;20513;-73
2021/12/20 02:47:42;;;;;;;4.50;1.60;;;;;;;;;;5055454;28;20704;-73
2021/12/20 02:50:10;;;;;;;2.43;2.23;;;;;;;;;;5057941;28;20822;-74
2021/12/20 02:52:39;;;;;;;12.07;3.23;;;;;;;;;;5058153;28;20469;-74
2021/12/20 02:55:08;;;;;;;10.57;4.17;;;;;;;;;;5071302;28;20551;-73
2021/12/20 02:57:35;;;;;;;7.33;6.93;;;;;;;;;;5077670;28;20445;-73
2021/12/20 03:00:05;;;;;;;11.83;7.87;;;;;;;;;;5076885;28;20540;-74
2021/12/20 03:02:32;;;;;;;2.80;1.87;;;;;;;;;;5077332;28;20449;-73
2021/12/20 03:05:00;;;;;;;11.40;2.80;;;;;;;;;;5077285;28;20449;-74
2021/12/20 03:07:28;;;;;;;11.13;2.33;;;;;;;;;;5077543;28;20830;-74
2021/12/20 03:10:01;;;;;;;4.07;2.30;;;;;;;;;;5077623;28;20901;-74
2021/12/20 03:12:32;;;;;;;3.73;2.30;;;;;;;;;;5077475;28;20452;-74
2021/12/20 03:15:05;;;;;;;3.57;1.80;;;;;;;;;;5075587;28;20465;-74
2021/12/20 03:17:32;;;;;;;5.23;2.30;;;;;;;;;;5077238;28;20712;-74
2021/12/20 03:20:00;;;;;;;4.17;2.07;;;;;;;;;;5076757;28;20539;-74
2021/12/20 03:22:28;;;;;;;2.80;1.87;;;;;;;;;;5076605;28;20460;-74
2021/12/20 03:24:57;;;;;;;3.03;1.20;;;;;;;;;;5076834;28;20464;-74
2021/12/20 03:27:25;;;;;;;4.13;1.77;;;;;;;;;;5076126;28;20453;-74
2021/12/20 03:29:52;;;;;;;4.20;2.40;;;;;;;;;;5077177;28;20460;-74
2021/12/20 03:32:20;;;;;;;5.33;1.40;;;;;;;;;;5076783;28;20488;-73
2021/12/20 03:34:47;;;;;;;4.53;2.67;;;;;;;;;;5077212;28;20463;-73
2021/12/20 03:37:15;;;;;;;6.50;2.37;;;;;;;;;;5076744;28;20536;-74
2021/12/20 03:39:43;;;;;;;5.93;1.77;;;;;;;;;;5076923;28;20543;-74
2021/12/20 03:42:12;;;;;;;3.87;2.03;;;;;;;;;;5076548;28;20459;-74
2021/12/20 03:44:44;;;;;;;5.60;2.00;;;;;;;;;;5076844;28;20852;-74
2021/12/20 03:47:12;;;;;;;8.90;1.87;;;;;;;;;;5076805;28;20488;-74
2021/12/20 03:49:43;;;;;;;1.80;1.40;;;;;;;;;;5076261;28;20452;-74
2021/12/20 03:52:10;;;;;;;5.73;2.23;;;;;;;;;;5076544;28;20493;-74
2021/12/20 03:54:38;;;;;;;5.30;1.30;;;;;;;;;;5076839;28;20457;-74
2021/12/20 03:57:06;;;;;;;3.17;1.20;;;;;;;;;;5059943;28;20454;-74
2021/12/20 03:59:36;;;;;;;7.53;1.93;;;;;;;;;;5056708;28;20465;-74
2021/12/20 04:02:05;;;;;;;7.07;2.53;;;;;;;;;;5056180;28;20449;-74
2021/12/20 04:04:33;;;;;;;9.33;8.60;;;;;;;;;;5056350;28;20453;-74
2021/12/20 04:07:00;;;;;;;7.90;4.23;;;;;;;;;;5056456;28;20778;-74
2021/12/20 04:09:28;;;;;;;12.60;9.23;;;;;;;;;;5056434;28;20457;-74
2021/12/20 04:11:56;;;;;;;5.83;3.07;;;;;;;;;;5072209;28;20586;-74
2021/12/20 04:14:30;;;;;;;3.13;2.33;;;;;;;;;;5076502;28;20530;-74
2021/12/20 04:16:59;;;;;;;4.23;1.73;;;;;;;;;;5068465;28;20452;-74
2021/12/20 04:19:26;;;;;;;4.10;3.23;;;;;;;;;;5076323;28;20456;-74
2021/12/20 04:21:54;;;;;;;8.63;2.30;;;;;;;;;;5076519;28;20444;-74
2021/12/20 04:24:21;;;;;;;13.70;2.80;;;;;;;;;;5076032;28;20810;-74
2021/12/20 04:26:49;;;;;;;3.53;2.10;;;;;;;;;;5076302;28;20456;-74
2021/12/20 04:29:18;;;;;;;3.73;1.03;;;;;;;;;;5075940;28;20888;-74
2021/12/20 04:31:49;;;;;;;2.60;1.57;;;;;;;;;;5076930;28;20484;-74
2021/12/20 04:34:21;;;;;;;17.77;2.90;;;;;;;;;;5076738;28;20458;-75
2021/12/20 04:36:49;;;;;;;3.67;2.10;;;;;;;;;;5092698;28;20467;-73
2021/12/20 04:39:19;;;;;;;3.83;2.20;;;;;;;;;;5089859;28;20489;-74
2021/12/20 04:42:11;;;;;;;4.73;1.80;;;;;;;;;;5080000;28;20914;-74
2021/12/20 04:44:39;;;;;;;2.70;1.60;;;;;;;;;;5079843;28;20771;-74
2021/12/20 04:47:07;;;;;;;4.63;1.60;;;;;;;;;;5079582;28;20456;-74
2021/12/20 04:49:36;;;;;;;3.83;1.83;;;;;;;;;;5079644;28;20480;-74
2021/12/20 04:52:13;;;;;;;6.00;1.60;;;;;;;;;;5079439;28;20480;-75
2021/12/20 04:54:41;;;;;;;7.13;3.50;;;;;;;;;;5080409;28;20511;-74
2021/12/20 04:57:08;;;;;;;5.03;1.97;;;;;;;;;;5079985;28;20918;-73
2021/12/20 04:59:37;;;;;;;2.53;1.30;;;;;;;;;;5079809;28;20444;-75
2021/12/20 05:02:12;;;;;;;4.30;2.07;;;;;;;;;;5080135;28;20735;-74
2021/12/20 05:04:44;;;;;;;6.37;2.00;;;;;;;;;;5079265;28;20812;-74
2021/12/20 05:07:11;;;;;;;7.20;1.90;;;;;;;;;;5085498;28;20465;-74
2021/12/20 05:09:43;;;;;;;7.40;3.10;;;;;;;;;;5099700;28;20448;-74
2021/12/20 05:12:12;;;;;;;4.60;3.00;;;;;;;;;;5099662;28;20996;-75
2021/12/20 05:14:40;;;;;;;8.03;3.57;;;;;;;;;;5099573;28;20486;-74
2021/12/20 05:17:08;;;;;;;7.93;1.87;;;;;;;;;;5086172;28;20949;-74
2021/12/20 05:19:36;;;;;;;9.77;2.20;;;;;;;;;;5079397;28;20460;-74
2021/12/20 05:22:06;;;;;;;9.23;1.87;;;;;;;;;;5079058;28;20452;-74
2021/12/20 05:24:34;;;;;;;4.67;1.30;;;;;;;;;;5079056;28;20452;-75
2021/12/20 05:27:02;;;;;;;6.07;1.83;;;;;;;;;;5078888;28;20829;-75
2021/12/20 05:29:30;;;;;;;6.00;2.67;;;;;;;;;;5078745;28;20449;-74
2021/12/20 05:31:58;;;;;;;14.23;9.00;;;;;;;;;;5078832;28;20557;-74
2021/12/20 05:34:25;;;;;;;3.97;3.50;;;;;;;;;;5079302;28;20831;-74
2021/12/20 05:36:53;;;;;;;7.30;6.60;;;;;;;;;;5078370;28;20865;-74
2021/12/20 05:39:22;;;;;;;5.40;2.53;;;;;;;;;;5082288;28;20882;-74
2021/12/20 05:41:50;;;;;;;9.90;9.00;;;;;;;;;;5098779;28;20450;-74
2021/12/20 05:44:17;;;;;;;6.37;5.77;;;;;;;;;;5097846;28;20757;-74
2021/12/20 05:46:45;;;;;;;12.90;5.77;;;;;;;;;;5098178;28;20459;-74
2021/12/20 05:49:12;;;;;;;16.93;2.70;;;;;;;;;;5098173;28;20832;-74
2021/12/20 05:51:55;;;;;;;6.53;5.23;;;;;;;;;;5093020;28;20476;-74
2021/12/20 05:54:24;;;;;;;5.60;2.47;;;;;;;;;;5076028;28;20467;-74
2021/12/20 05:56:52;;;;;;;3.60;2.53;;;;;;;;;;5078411;28;20444;-74
2021/12/20 05:59:19;;;;;;;4.30;2.20;;;;;;;;;;5081230;28;20463;-74
2021/12/20 06:01:47;;;;;;;3.00;2.40;;;;;;;;;;5077567;28;20468;-75
2021/12/20 06:04:15;;;;;;;5.63;2.60;;;;;;;;;;5077085;28;20448;-74
2021/12/20 06:06:43;;;;;;;4.63;3.07;;;;;;;;;;5076986;28;20449;-74
2021/12/20 06:09:14;;;;;;;5.57;2.43;;;;;;;;;;5077020;28;20456;-74
2021/12/20 06:11:45;;;;;;;4.60;2.20;;;;;;;;;;5078173;28;20773;-74
2021/12/20 06:14:13;;;;;;;10.63;2.73;;;;;;;;;;5076643;28;20934;-74
2021/12/20 06:16:41;;;;;;;9.47;2.50;;;;;;;;;;5076718;28;20865;-74
2021/12/20 06:19:08;;;;;;;4.53;2.73;;;;;;;;;;5076060;28;20455;-74
2021/12/20 06:21:36;;;;;;;4.00;3.10;;;;;;;;;;5075817;28;20740;-72
2021/12/20 06:24:04;;;;;;;7.67;3.60;;;;;;;;;;5077861;28;20452;-73
2021/12/20 06:26:35;;;;;;;6.80;5.97;;;;;;;;;;5087471;28;20876;-74
2021/12/20 06:29:06;;;;;;;4.67;2.33;;;;;;;;;;5076852;28;20444;-74
2021/12/20 06:31:33;;;;;;;10.40;2.47;;;;;;;;;;5082336;28;20578;-74
2021/12/20 06:34:01;;;;;;;11.83;2.50;;;;;;;;;;5096734;28;20476;-74
2021/12/20 06:36:31;;;;;;;7.30;3.43;;;;;;;;;;5093521;28;20460;-74
2021/12/20 06:38:58;;;;;;;8.83;3.93;;;;;;;;;;5075246;28;20441;-74
2021/12/20 06:41:26;;;;;;;6.17;3.63;;;;;;;;;;5075850;28;20462;-74
2021/12/20 06:43:54;;;;;;;4.07;1.93;;;;;;;;;;5075661;28;20457;-76
2021/12/20 06:46:23;;;;;;;7.50;3.27;;;;;;;;;;5073146;28;20464;-74
2021/12/20 06:48:51;;;;;;;6.83;2.67;;;;;;;;;;5074609;28;20448;-73
2021/12/20 06:51:18;;;;;;;12.53;6.17;;;;;;;;;;5074803;28;21204;-74
2021/12/20 06:53:46;;;;;;;3.53;2.33;;;;;;;;;;5073879;28;20445;-74
2021/12/20 06:56:13;;;;;;;5.33;2.40;;;;;;;;;;5074911;28;20456;-74
2021/12/20 06:58:41;;;;;;;3.47;1.83;;;;;;;;;;5075595;28;20453;-74
2021/12/20 07:01:09;;;;;;;5.97;4.43;;;;;;;;;;5075411;28;20538;-75
2021/12/20 07:03:38;;;;;;;8.20;4.67;;;;;;;;;;5073858;28;20455;-74
2021/12/20 07:06:06;;;;;;;8.80;2.77;;;;;;;;;;5078028;28;20470;-74
2021/12/20 07:08:37;;;;;;;5.90;1.87;;;;;;;;;;5093469;28;21103;-74
2021/12/20 07:11:05;;;;;;;9.53;2.73;;;;;;;;;;5079980;28;20472;-74
2021/12/20 07:13:40;;;;;;;10.10;3.93;;;;;;;;;;5075079;28;20977;-74
2021/12/20 07:16:08;;;;;;;5.17;4.33;;;;;;;;;;5079585;28;20458;-74
2021/12/20 07:18:42;;;;;;;9.67;2.90;;;;;;;;;;5086621;28;20447;-74
2021/12/20 07:21:11;;;;;;;6.40;3.20;;;;;;;;;;5081739;28;20459;-74
2021/12/20 07:23:40;;;;;;;4.27;2.20;;;;;;;;;;5076270;28;20436;-74
2021/12/20 07:26:13;;;;;;;7.47;4.33;;;;;;;;;;5084512;28;20870;-75
2021/12/20 07:28:42;;;;;;;7.47;4.77;;;;;;;;;;5084236;28;20526;-74
2021/12/20 07:31:14;;;;;;;5.10;2.60;;;;;;;;;;5078122;28;20447;-74
2021/12/20 07:33:44;;;;;;;6.17;3.60;;;;;;;;;;5090367;28;20502;-74
2021/12/20 07:36:14;;;;;;;4.47;1.90;;;;;;;;;;5077149;28;20476;-75
2021/12/20 07:38:42;;;;;;;9.20;4.70;;;;;;;;;;5091622;28;20459;-74
2021/12/20 07:41:28;;;;;;;4.60;3.80;;;;;;;;;;5094842;28;20451;-75
2021/12/20 07:43:56;;;;;;;6.70;4.97;;;;;;;;;;5082911;28;20889;-74
2021/12/20 07:46:26;;;;;;;8.07;5.57;;;;;;;;;;5087596;28;20440;-73
2021/12/20 07:48:55;;;;;;;8.33;6.03;;;;;;;;;;5077959;28;20930;-74
2021/12/20 07:51:23;;;;;;;8.20;4.13;;;;;;;;;;5082508;28;20740;-73
2021/12/20 07:56:50;;;;;;;10.20;5.27;;;;;;;;;;5086848;28;20443;-74
2021/12/20 07:59:18;;;;;;;4.40;3.53;;;;;;;;;;5087630;28;20462;-74
2021/12/20 08:01:47;;;;;;;10.00;3.37;;;;;;;;;;5096001;28;20640;-74
2021/12/20 08:04:18;;;;;;;8.37;4.00;;;;;;;;;;5082408;28;20526;-74
2021/12/20 08:06:46;;;;;;;4.40;3.07;;;;;;;;;;5075408;28;21160;-74
2021/12/20 08:09:18;;;;;;;6.57;5.67;;;;;;;;;;5075368;28;20461;-73
2021/12/20 08:11:46;;;;;;;11.00;3.70;;;;;;;;;;5073722;28;20972;-74
2021/12/20 08:14:15;;;;;;;7.57;2.53;;;;;;;;;;5090446;28;20752;-74
2021/12/20 08:16:43;;;;;;;8.53;3.73;;;;;;;;;;5084086;28;20492;-75
2021/12/20 08:19:19;;;;;;;3.90;2.57;;;;;;;;;;5078422;28;20486;-74
2021/12/20 08:21:51;;;;;;;6.87;3.63;;;;;;;;;;5078898;28;20499;-74
2021/12/20 08:24:32;;;;;;;6.60;3.37;;;;;;;;;;5083738;28;20494;-74
2021/12/20 08:30:13;;;;;;;6.53;2.73;;;;;;;;;;5083033;28;20553;-75
2021/12/20 08:38:53;;;;;;;6.63;5.70;;;;;;;;;;5075628;28;20483;-75
2021/12/20 08:41:27;;;;;;;4.13;2.37;;;;;;;;;;5088363;28;20770;-75
2021/12/20 08:44:09;;;;;;;3.40;2.17;;;;;;;;;;5099033;28;20451;-72
2021/12/20 08:49:23;;;;;;;4.27;3.77;;;;;;;;;;5077511;28;20449;-74
2021/12/20 08:51:55;;;;;;;6.70;4.00;;;;;;;;;;5077471;28;20522;-74
2021/12/20 08:54:33;;;;;;;7.70;6.90;;;;;;;;;;5076525;28;20564;-74
2021/12/20 08:57:11;;;;;;;5.63;5.13;;;;;;;;;;5077267;28;20468;-73
2021/12/20 08:59:44;;;;;;;5.27;2.93;;;;;;;;;;5083810;28;20804;-71
2021/12/20 09:02:12;;;;;;;4.67;4.10;;;;;;;;;;5088022;28;20468;-74
2021/12/20 09:04:40;;;;;;;4.90;4.37;;;;;;;;;;5097282;28;20462;-73
2021/12/20 09:07:14;;;;;;;5.50;3.63;;;;;;;;;;5086401;28;20891;-73
2021/12/20 09:09:44;;;;;;;11.07;7.67;;;;;;;;;;5083556;28;20448;-73
2021/12/20 09:12:28;;;;;;;5.80;3.27;;;;;;;;;;5086438;28;20864;-73
2021/12/20 09:15:00;;;;;;;8.13;6.07;;;;;;;;;;5098936;28;20482;-73
2021/12/20 09:20:15;;;;;;;4.47;2.90;;;;;;;;;;5077602;28;20445;-72
2021/12/20 09:22:52;;;;;;;4.70;4.20;;;;;;;;;;5097670;28;20444;-72
2021/12/20 09:25:21;;;;;;;5.83;4.30;;;;;;;;;;5087016;28;20440;-73
2021/12/20 09:27:56;;;;;;;13.27;8.53;;;;;;;;;;5077438;28;20894;-73
2021/12/20 09:30:25;;;;;;;7.17;5.50;;;;;;;;;;5085310;28;20455;-72
2021/12/20 09:32:53;;;;;;;5.10;3.23;;;;;;;;;;5085584;28;20479;-72
2021/12/20 09:35:22;;;;;;;5.80;4.97;;;;;;;;;;5081699;28;20459;-72
2021/12/20 09:37:51;;;;;;;7.00;5.27;;;;;;;;;;5088068;28;20453;-73
2021/12/20 09:40:26;;;;;;;7.03;4.40;;;;;;;;;;5080153;28;20456;-73
2021/12/20 09:43:03;;;;;;;7.10;5.10;;;;;;;;;;5088973;28;20526;-73
2021/12/20 09:45:34;;;;;;;11.97;3.70;;;;;;;;;;5082246;28;20539;-73
2021/12/20 09:48:03;;;;;;;9.20;4.83;;;;;;;;;;5084909;28;20870;-73
2021/12/20 09:50:32;;;;;;;5.00;3.90;;;;;;;;;;5084383;28;20514;-71
2021/12/20 09:56:01;;;;;;;8.57;6.50;;;;;;;;;;5079741;28;20436;-72
2021/12/20 09:58:36;;;;;;;5.77;5.13;;;;;;;;;;5083218;28;20578;-72
2021/12/20 10:01:05;;;;;;;5.93;3.07;;;;;;;;;;5090426;28;20471;-73
2021/12/20 10:03:56;;;;;;;6.60;3.60;;;;;;;;;;5081711;28;20539;-73
2021/12/20 10:06:30;;;;;;;7.13;5.57;;;;;;;;;;5081782;28;20463;-73
2021/12/20 10:09:09;;;;;;;5.63;3.03;;;;;;;;;;5081779;28;20881;-74
2021/12/20 10:11:43;;;;;;;8.53;3.20;;;;;;;;;;5088138;28;20444;-72
2021/12/20 10:14:16;;;;;;;7.33;5.13;;;;;;;;;;5083927;28;20476;-73
2021/12/20 10:16:46;;;;;;;6.20;3.40;;;;;;;;;;5084644;28;20521;-72
2021/12/20 10:19:29;;;;;;;9.57;5.37;;;;;;;;;;5082710;28;20468;-72
2021/12/20 10:22:03;;;;;;;9.23;3.30;;;;;;;;;;5081620;28;21038;-73
2021/12/20 10:24:32;;;;;;;8.07;6.47;;;;;;;;;;5082526;28;20455;-73
2021/12/20 10:27:00;;;;;;;12.30;5.80;;;;;;;;;;5089970;28;20535;-73
2021/12/20 10:29:32;;;;;;;6.63;5.70;;;;;;;;;;5082414;28;20455;-73
2021/12/20 10:32:02;;;;;;;9.53;5.47;;;;;;;;;;5078170;28;20437;-73
2021/12/20 10:34:35;;;;;;;8.13;6.10;;;;;;;;;;5083468;28;20567;-73
2021/12/20 10:37:07;;;;;;;8.37;6.10;;;;;;;;;;5077046;28;20597;-74
2021/12/20 10:39:44;;;;;;;6.03;4.93;;;;;;;;;;5085816;28;20968;-73
2021/12/20 10:42:23;;;;;;;7.40;5.60;;;;;;;;;;5086594;28;20558;-74
2021/12/20 10:45:06;;;;;;;3.80;2.63;;;;;;;;;;5086605;28;20732;-73
2021/12/20 10:47:35;;;;;;;6.07;3.87;;;;;;;;;;5074654;28;20782;-73
2021/12/20 10:50:17;;;;;;;10.47;4.83;;;;;;;;;;5075676;28;20440;-73
2021/12/20 10:52:45;;;;;;;15.67;4.40;;;;;;;;;;5088922;28;20483;-74
2021/12/20 10:55:12;;;;;;;8.77;3.70;;;;;;;;;;5078929;28;20503;-72
2021/12/20 10:57:41;;;;;;;7.23;5.80;;;;;;;;;;5091633;28;20448;-72
2021/12/20 11:00:21;;;;;;;7.80;5.80;;;;;;;;;;5087774;28;20463;-73
2021/12/20 11:03:28;;;;;;;10.57;7.23;;;;;;;;;;5078580;28;20488;-72
2021/12/20 11:06:13;;;;;;;6.57;5.17;;;;;;;;;;5075060;28;20486;-73
2021/12/20 11:11:28;;;;;;;7.73;5.57;;;;;;;;;;5081572;28;20455;-73
2021/12/20 11:13:56;;;;;;;7.50;5.33;;;;;;;;;;5082002;28;20611;-73
2021/12/20 11:16:27;;;;;;;7.97;6.23;;;;;;;;;;5092987;28;20538;-73
2021/12/20 11:19:14;;;;;;;14.53;6.30;;;;;;;;;;5085617;28;20452;-72
2021/12/20 11:21:57;;;;;;;8.03;5.00;;;;;;;;;;5089140;28;20523;-74
2021/12/20 11:24:33;;;;;;;8.53;6.50;;;;;;;;;;5078564;28;20451;-73
2021/12/20 11:27:05;;;;;;;9.03;5.97;;;;;;;;;;5082022;28;20444;-74
2021/12/20 11:29:33;;;;;;;9.50;5.00;;;;;;;;;;5080442;28;20902;-73
2021/12/20 11:32:04;;;;;;;8.40;6.67;;;;;;;;;;5087572;28;20519;-73
2021/12/20 11:34:32;;;;;;;8.80;5.73;;;;;;;;;;5075095;28;20504;-72
2021/12/20 11:37:04;;;;;;;7.77;6.50;;;;;;;;;;5055838;28;20641;-72
2021/12/20 11:39:34;;;;;;;7.17;5.60;;;;;;;;;;5054854;28;20461;-72
2021/12/20 11:42:03;;;;;;;7.30;5.23;;;;;;;;;;5054609;28;20892;-72
2021/12/20 11:44:31;;;;;;;14.17;4.90;;;;;;;;;;5062278;28;20502;-72
2021/12/20 11:47:09;;;;;;;11.30;9.03;;;;;;;;;;5074081;28;20511;-72
2021/12/20 11:49:39;;;;;;;5.10;3.00;;;;;;;;;;5064871;28;20461;-72
2021/12/20 11:52:18;;;;;;;8.77;6.63;;;;;;;;;;5059579;28;20530;-71
2021/12/20 11:54:50;;;;;;;7.87;5.63;;;;;;;;;;5060127;28;20586;-73
2021/12/20 11:57:39;;;;;;;6.10;4.93;;;;;;;;;;5066850;28;20437;-73
2021/12/20 12:00:28;;;;;;;12.43;2.40;;;;;;;;;;5056493;28;20464;-72
2021/12/20 12:03:01;;;;;;;6.03;4.60;;;;;;;;;;5067944;28;20445;-72
2021/12/20 12:05:43;;;;;;;5.03;3.70;;;;;;;;;;5055465;28;20461;-72
2021/12/20 12:08:33;;;;;;;5.73;4.40;;;;;;;;;;5061572;28;20461;-72
2021/12/20 12:11:31;;;;;;;5.63;4.70;;;;;;;;;;5056791;28;20537;-73
2021/12/20 12:14:36;;;;;;;10.50;5.43;;;;;;;;;;5065331;28;20838;-72
2021/12/20 12:17:10;;;;;;;8.50;5.73;;;;;;;;;;5055263;28;20461;-73
2021/12/20 12:19:48;;;;;;;6.30;4.60;;;;;;;;;;5054015;28;20441;-73
2021/12/20 12:22:35;;;;;;;4.50;3.47;;;;;;;;;;5060083;28;20903;-73
2021/12/20 12:25:08;;;;;;;8.83;5.93;;;;;;;;;;5061402;28;20451;-72
2021/12/20 12:27:40;;;;;;;6.00;3.70;;;;;;;;;;5056410;28;20458;-73
2021/12/20 12:30:32;;;;;;;11.60;7.30;;;;;;;;;;5059619;28;20787;-73
2021/12/20 12:33:19;;;;;;;5.40;4.10;;;;;;;;;;5071166;28;20448;-72
2021/12/20 12:35:51;;;;;;;6.80;2.70;;;;;;;;;;5065788;28;20811;-73
2021/12/20 12:38:20;;;;;;;8.80;4.63;;;;;;;;;;5084225;28;20440;-73
2021/12/20 12:40:51;;;;;;;9.10;6.97;;;;;;;;;;5091315;28;20447;-75
2021/12/20 12:43:26;;;;;;;7.20;6.40;;;;;;;;;;5072753;28;20449;-73
2021/12/20 12:45:55;;;;;;;8.87;7.77;;;;;;;;;;5078947;28;20521;-72
2021/12/20 12:48:43;;;;;;;8.27;6.60;;;;;;;;;;5080485;28;20801;-72
2021/12/20 12:51:27;;;;;;;10.37;7.10;;;;;;;;;;5086588;28;20455;-73
2021/12/20 12:53:58;;;;;;;22.37;13.50;;;;;;;;;;5081866;28;20927;-72
2021/12/20 12:56:35;;;;;;;10.00;6.87;;;;;;;;;;5087558;28;20810;-72
2021/12/20 12:59:24;;;;;;;16.33;11.40;;;;;;;;;;5073074;28;20828;-72
2021/12/20 13:02:01;;;;;;;9.37;6.90;;;;;;;;;;5076313;28;20453;-72
2021/12/20 13:04:52;;;;;;;10.03;6.90;;;;;;;;;;5078044;28;20436;-72
2021/12/20 13:07:26;;;;;;;7.80;5.30;;;;;;;;;;5067239;28;20487;-71
2021/12/20 13:09:57;;;;;;;12.80;8.10;;;;;;;;;;5084087;28;22286;-72
2021/12/20 13:12:31;;;;;;;5.70;4.07;;;;;;;;;;5084967;28;20461;-71
2021/12/20 13:15:18;;;;;;;10.97;7.27;;;;;;;;;;5079273;28;20479;-72
2021/12/20 13:24:22;;;;;;;8.17;7.30;;;;;;;;;;5083288;28;20459;-72
2021/12/20 13:27:07;;;;;;;5.73;4.83;;;;;;;;;;5081748;28;20559;-73
2021/12/20 13:32:44;;;;;;;9.70;6.13;;;;;;;;;;5076812;28;20483;-72
2021/12/20 13:35:32;;;;;;;5.30;3.30;;;;;;;;;;5084740;28;20483;-72
2021/12/20 13:38:28;;;;;;;7.80;5.37;;;;;;;;;;5079823;28;20523;-72
2021/12/20 13:41:32;;;;;;;6.90;5.43;;;;;;;;;;5080733;28;21129;-72
2021/12/20 13:44:26;;;;;;;6.10;5.10;;;;;;;;;;5083843;28;20737;-71
2021/12/20 13:47:16;;;;;;;11.20;7.13;;;;;;;;;;5080045;28;20887;-71
2021/12/20 13:49:58;;;;;;;7.83;6.20;;;;;;;;;;5088068;28;20456;-74
2021/12/20 13:52:29;;;;;;;6.30;5.10;;;;;;;;;;5077696;28;20449;-73
2021/12/20 13:54:57;;;;;;;9.00;4.83;;;;;;;;;;5077631;28;20484;-73
2021/12/20 13:57:27;;;;;;;8.57;7.57;;;;;;;;;;5086690;28;20456;-72
2021/12/20 14:00:03;;;;;;;10.20;8.83;;;;;;;;;;5080309;28;21232;-71
2021/12/20 14:02:33;;;;;;;5.90;5.23;;;;;;;;;;5077707;28;20586;-71
2021/12/20 14:05:17;;;;;;;9.67;8.47;;;;;;;;;;5080148;28;20444;-73
2021/12/20 14:10:45;;;;;;;8.50;5.50;;;;;;;;;;5003944;28;20463;-73
2021/12/20 14:13:18;;;;;;;19.57;9.20;;;;;;;;;;5065239;28;20469;-73
2021/12/20 14:15:59;;;;;;;12.90;9.97;;;;;;;;;;5081203;28;20452;-73
2021/12/20 14:18:46;;;;;;;8.90;6.30;;;;;;;;;;5096251;28;20447;-72
2021/12/20 14:21:15;;;;;;;7.10;6.37;;;;;;;;;;5101163;28;20470;-72
2021/12/20 14:23:49;;;;;;;6.03;3.77;;;;;;;;;;5097442;28;20555;-73
2021/12/20 14:26:26;;;;;;;11.90;8.00;;;;;;;;;;5090355;28;20905;-73
2021/12/20 14:28:55;;;;;;;10.60;7.03;;;;;;;;;;5082264;28;20464;-72
2021/12/20 14:31:27;;;;;;;12.50;7.00;;;;;;;;;;5094324;28;20458;-73
2021/12/20 14:33:59;;;;;;;10.27;8.67;;;;;;;;;;5094112;28;20499;-72
2021/12/20 14:36:31;;;;;;;11.00;8.63;;;;;;;;;;5092634;28;20828;-73
2021/12/20 14:39:14;;;;;;;8.87;7.10;;;;;;;;;;5091293;28;20978;-73
2021/12/20 14:41:44;;;;;;;5.40;4.60;;;;;;;;;;5090851;28;20470;-72
2021/12/20 14:44:25;;;;;;;8.47;6.23;;;;;;;;;;5086529;28;20456;-72
2021/12/20 14:47:06;;;;;;;13.27;8.23;;;;;;;;;;5075271;28;20456;-73
2021/12/20 14:49:52;;;;;;;8.17;7.13;;;;;;;;;;5084676;28;20892;-74
2021/12/20 14:52:21;;;;;;;11.23;7.37;;;;;;;;;;5089522;28;20486;-73
2021/12/20 14:54:53;;;;;;;6.37;5.73;;;;;;;;;;5092520;28;21079;-73
2021/12/20 14:57:29;;;;;;;18.20;11.37;;;;;;;;;;5082508;28;20443;-72
2021/12/20 14:59:57;;;;;;;6.50;5.67;;;;;;;;;;5079124;28;20459;-73
2021/12/20 15:02:36;;;;;;;10.40;4.53;;;;;;;;;;5083111;28;20509;-73
2021/12/20 15:05:15;;;;;;;8.83;7.20;;;;;;;;;;5091741;28;20466;-73
2021/12/20 15:08:07;;;;;;;6.27;4.60;;;;;;;;;;5079152;28;20446;-72
2021/12/20 15:10:36;;;;;;;9.30;7.33;;;;;;;;;;5077885;28;20468;-72
2021/12/20 15:13:09;;;;;;;9.13;6.10;;;;;;;;;;5091218;28;20455;-73
2021/12/20 15:15:45;;;;;;;13.80;7.23;;;;;;;;;;5098290;28;20986;-72
2021/12/20 15:18:18;;;;;;;19.77;12.07;;;;;;;;;;5093982;28;20945;-71
2021/12/20 15:20:46;;;;;;;14.90;9.43;;;;;;;;;;5073573;28;20444;-71
2021/12/20 15:23:18;;;;;;;13.30;6.93;;;;;;;;;;5074766;28;20870;-72
2021/12/20 15:25:49;;;;;;;18.33;9.90;;;;;;;;;;5074660;28;20550;-73
2021/12/20 15:28:19;;;;;;;16.27;9.70;;;;;;;;;;5088324;28;20447;-74
2021/12/20 15:30:48;;;;;;;26.10;16.20;;;;;;;;;;5082133;28;20513;-73
2021/12/20 15:33:24;;;;;;;13.03;8.47;;;;;;;;;;5085722;28;20796;-72
2021/12/20 15:35:51;;;;;;;15.30;7.23;;;;;;;;;;5089328;28;20494;-73
2021/12/20 15:38:41;;;;;;;14.50;11.53;;;;;;;;;;5085556;28;20544;-72
2021/12/20 15:43:58;;;;;;;13.23;9.00;;;;;;;;;;5073294;28;20459;-73
2021/12/20 15:46:32;;;;;;;9.00;6.30;;;;;;;;;;5076391;28;20456;-73
2021/12/20 15:49:08;;;;;;;7.37;4.70;;;;;;;;;;5074001;28;20452;-72
2021/12/20 15:51:36;;;;;;;18.67;13.20;;;;;;;;;;5083995;28;20875;-72
2021/12/20 15:54:08;;;;;;;9.40;7.17;;;;;;;;;;5089663;28;20976;-72
2021/12/20 15:56:36;;;;;;;7.53;5.47;;;;;;;;;;5093418;28;20762;-72
2021/12/20 15:59:04;;;;;;;14.10;6.40;;;;;;;;;;5091335;28;20451;-71
2021/12/20 16:01:32;;;;;;;12.57;6.27;;;;;;;;;;5093367;28;20552;-71